sensor_id;sensor_type;location;lat;lon;timestamp;P1;durP1;ratioP1;P2;durP2;ratioP2
15496;SDS011;7850;52.204;5.942;2022-10-16T00:02:31;2.34;;;2.26;;
15496;SDS011;7850;52.204;5.942;2022-10-16T00:02:31;2.39;;;2.30;;
15496;SDS011;7850;52.204;5.942;2022-10-16T00:02:31;2.25;;;2.18;;
15496;SDS011;7850;52.204;5.942;2022-10-16T00:03:12;2.79;;;2.69;;
15496;SDS011;7850;52.204;5.942;2022-10-16T00:04:12;0.38;;;0.38;;
15496;SDS011;7850;52.204;5.942;2022-10-16T00:05:12;0.58;;;0.58;;
15496;SDS011;7850;52.204;5.942;2022-10-16T00:06:12;0.88;;;0.88;;
15496;SDS011;7850;52.204;5.942;2022-10-16T00:07:12;1.54;;;1.54;;
15496;SDS011;7850;52.204;5.942;2022-10-16T00:08:12;1.00;;;1.00;;
15496;SDS011;7850;52.204;5.942;2022-10-16T00:09:12;1.09;;;1.09;;
15496;SDS011;7850;52.204;5.942;2022-10-16T00:10:12;1.10;;;1.10;;
15496;SDS011;7850;52.204;5.942;2022-10-16T00:11:13;1.18;;;1.18;;
15496;SDS011;7850;52.204;5.942;2022-10-16T00:12:12;1.31;;;1.31;;
15496;SDS011;7850;52.204;5.942;2022-10-16T00:13:12;1.15;;;1.15;;
15496;SDS011;7850;52.204;5.942;2022-10-16T00:14:13;1.13;;;1.13;;
15496;SDS011;7850;52.204;5.942;2022-10-16T00:15:13;1.00;;;1.00;;
15496;SDS011;7850;52.204;5.942;2022-10-16T00:16:13;1.09;;;1.09;;
15496;SDS011;7850;52.204;5.942;2022-10-16T00:17:13;1.14;;;1.14;;
15496;SDS011;7850;52.204;5.942;2022-10-16T00:18:13;0.94;;;0.94;;
15496;SDS011;7850;52.204;5.942;2022-10-16T00:19:13;1.01;;;1.01;;
15496;SDS011;7850;52.204;5.942;2022-10-16T00:20:13;1.00;;;1.00;;
15496;SDS011;7850;52.204;5.942;2022-10-16T00:21:14;1.00;;;1.00;;
15496;SDS011;7850;52.204;5.942;2022-10-16T00:22:13;0.85;;;0.85;;
15496;SDS011;7850;52.204;5.942;2022-10-16T00:23:13;1.09;;;1.09;;
15496;SDS011;7850;52.204;5.942;2022-10-16T00:24:13;1.12;;;1.12;;
15496;SDS011;7850;52.204;5.942;2022-10-16T00:25:13;1.20;;;1.20;;
15496;SDS011;7850;52.204;5.942;2022-10-16T00:26:14;1.10;;;1.10;;
15496;SDS011;7850;52.204;5.942;2022-10-16T00:27:13;1.22;;;1.22;;
15496;SDS011;7850;52.204;5.942;2022-10-16T00:28:13;0.20;;;0.20;;
15496;SDS011;7850;52.204;5.942;2022-10-16T00:29:13;0.27;;;0.27;;
15496;SDS011;7850;52.204;5.942;2022-10-16T00:30:13;0.28;;;0.28;;
15496;SDS011;7850;52.204;5.942;2022-10-16T00:31:13;0.29;;;0.29;;
15496;SDS011;7850;52.204;5.942;2022-10-16T00:32:13;0.29;;;0.29;;
15496;SDS011;7850;52.204;5.942;2022-10-16T00:33:13;0.25;;;0.25;;
15496;SDS011;7850;52.204;5.942;2022-10-16T00:34:14;0.23;;;0.23;;
15496;SDS011;7850;52.204;5.942;2022-10-16T00:35:14;0.30;;;0.30;;
15496;SDS011;7850;52.204;5.942;2022-10-16T00:36:14;0.30;;;0.30;;
15496;SDS011;7850;52.204;5.942;2022-10-16T00:37:14;0.25;;;0.25;;
15496;SDS011;7850;52.204;5.942;2022-10-16T00:38:14;0.30;;;0.30;;
15496;SDS011;7850;52.204;5.942;2022-10-16T00:39:14;0.30;;;0.30;;
15496;SDS011;7850;52.204;5.942;2022-10-16T00:40:14;0.36;;;0.36;;
15496;SDS011;7850;52.204;5.942;2022-10-16T00:41:15;0.30;;;0.30;;
15496;SDS011;7850;52.204;5.942;2022-10-16T00:42:15;0.30;;;0.30;;
15496;SDS011;7850;52.204;5.942;2022-10-16T00:43:32;0.35;;;0.35;;
15496;SDS011;7850;52.204;5.942;2022-10-16T00:45:14;0.30;;;0.30;;
15496;SDS011;7850;52.204;5.942;2022-10-16T00:46:15;0.29;;;0.29;;
15496;SDS011;7850;52.204;5.942;2022-10-16T00:47:15;0.21;;;0.21;;
15496;SDS011;7850;52.204;5.942;2022-10-16T00:48:14;0.20;;;0.20;;
15496;SDS011;7850;52.204;5.942;2022-10-16T00:49:15;0.26;;;0.26;;
15496;SDS011;7850;52.204;5.942;2022-10-16T00:50:16;0.28;;;0.28;;
15496;SDS011;7850;52.204;5.942;2022-10-16T00:51:15;0.20;;;0.20;;
15496;SDS011;7850;52.204;5.942;2022-10-16T00:52:14;0.30;;;0.30;;
15496;SDS011;7850;52.204;5.942;2022-10-16T00:53:15;0.20;;;0.20;;
15496;SDS011;7850;52.204;5.942;2022-10-16T00:54:16;0.34;;;0.34;;
15496;SDS011;7850;52.204;5.942;2022-10-16T00:55:15;0.20;;;0.20;;
15496;SDS011;7850;52.204;5.942;2022-10-16T00:56:15;0.20;;;0.20;;
15496;SDS011;7850;52.204;5.942;2022-10-16T00:57:15;0.20;;;0.20;;
15496;SDS011;7850;52.204;5.942;2022-10-16T00:58:15;0.20;;;0.20;;
15496;SDS011;7850;52.204;5.942;2022-10-16T00:59:18;0.20;;;0.20;;
15496;SDS011;7850;52.204;5.942;2022-10-16T01:00:17;0.29;;;0.29;;
15496;SDS011;7850;52.204;5.942;2022-10-16T01:01:15;0.24;;;0.24;;
15496;SDS011;7850;52.204;5.942;2022-10-16T01:02:15;0.24;;;0.24;;
15496;SDS011;7850;52.204;5.942;2022-10-16T01:03:23;0.30;;;0.30;;
15496;SDS011;7850;52.204;5.942;2022-10-16T01:04:15;0.23;;;0.23;;
15496;SDS011;7850;52.204;5.942;2022-10-16T01:05:15;0.23;;;0.23;;
15496;SDS011;7850;52.204;5.942;2022-10-16T01:06:19;0.21;;;0.21;;
15496;SDS011;7850;52.204;5.942;2022-10-16T01:07:17;0.34;;;0.34;;
15496;SDS011;7850;52.204;5.942;2022-10-16T01:08:17;0.30;;;0.30;;
15496;SDS011;7850;52.204;5.942;2022-10-16T01:09:16;0.27;;;0.27;;
15496;SDS011;7850;52.204;5.942;2022-10-16T01:10:17;0.26;;;0.26;;
15496;SDS011;7850;52.204;5.942;2022-10-16T01:11:17;0.30;;;0.30;;
15496;SDS011;7850;52.204;5.942;2022-10-16T01:12:17;0.30;;;0.30;;
15496;SDS011;7850;52.204;5.942;2022-10-16T01:13:17;0.22;;;0.22;;
15496;SDS011;7850;52.204;5.942;2022-10-16T01:14:19;0.24;;;0.24;;
15496;SDS011;7850;52.204;5.942;2022-10-16T01:15:17;0.27;;;0.27;;
15496;SDS011;7850;52.204;5.942;2022-10-16T01:16:18;0.30;;;0.30;;
15496;SDS011;7850;52.204;5.942;2022-10-16T01:17:17;0.29;;;0.29;;
15496;SDS011;7850;52.204;5.942;2022-10-16T01:18:16;0.23;;;0.23;;
15496;SDS011;7850;52.204;5.942;2022-10-16T01:19:17;0.20;;;0.20;;
15496;SDS011;7850;52.204;5.942;2022-10-16T01:20:20;0.25;;;0.25;;
15496;SDS011;7850;52.204;5.942;2022-10-16T01:21:18;0.20;;;0.20;;
15496;SDS011;7850;52.204;5.942;2022-10-16T01:22:16;0.20;;;0.20;;
15496;SDS011;7850;52.204;5.942;2022-10-16T01:23:20;0.26;;;0.26;;
15496;SDS011;7850;52.204;5.942;2022-10-16T01:24:17;0.29;;;0.29;;
15496;SDS011;7850;52.204;5.942;2022-10-16T01:25:18;0.20;;;0.20;;
15496;SDS011;7850;52.204;5.942;2022-10-16T01:26:20;0.49;;;0.49;;
15496;SDS011;7850;52.204;5.942;2022-10-16T01:27:17;0.49;;;0.49;;
15496;SDS011;7850;52.204;5.942;2022-10-16T01:28:16;0.30;;;0.30;;
15496;SDS011;7850;52.204;5.942;2022-10-16T01:29:17;0.20;;;0.20;;
15496;SDS011;7850;52.204;5.942;2022-10-16T01:30:18;0.30;;;0.30;;
15496;SDS011;7850;52.204;5.942;2022-10-16T01:31:18;0.34;;;0.34;;
15496;SDS011;7850;52.204;5.942;2022-10-16T01:32:17;0.30;;;0.30;;
15496;SDS011;7850;52.204;5.942;2022-10-16T01:33:18;0.30;;;0.30;;
15496;SDS011;7850;52.204;5.942;2022-10-16T01:34:18;0.33;;;0.33;;
15496;SDS011;7850;52.204;5.942;2022-10-16T01:35:18;0.30;;;0.30;;
15496;SDS011;7850;52.204;5.942;2022-10-16T01:36:18;0.20;;;0.20;;
15496;SDS011;7850;52.204;5.942;2022-10-16T01:37:20;0.24;;;0.24;;
15496;SDS011;7850;52.204;5.942;2022-10-16T01:38:18;0.20;;;0.20;;
15496;SDS011;7850;52.204;5.942;2022-10-16T01:39:18;0.20;;;0.20;;
15496;SDS011;7850;52.204;5.942;2022-10-16T01:40:17;0.20;;;0.20;;
15496;SDS011;7850;52.204;5.942;2022-10-16T01:41:18;0.20;;;0.20;;
15496;SDS011;7850;52.204;5.942;2022-10-16T01:42:19;0.20;;;0.20;;
15496;SDS011;7850;52.204;5.942;2022-10-16T01:43:18;0.20;;;0.20;;
15496;SDS011;7850;52.204;5.942;2022-10-16T01:44:18;0.20;;;0.20;;
15496;SDS011;7850;52.204;5.942;2022-10-16T01:45:18;0.27;;;0.27;;
15496;SDS011;7850;52.204;5.942;2022-10-16T01:46:18;0.30;;;0.30;;
15496;SDS011;7850;52.204;5.942;2022-10-16T01:47:18;0.26;;;0.26;;
15496;SDS011;7850;52.204;5.942;2022-10-16T01:48:18;0.40;;;0.40;;
15496;SDS011;7850;52.204;5.942;2022-10-16T01:49:18;0.40;;;0.40;;
15496;SDS011;7850;52.204;5.942;2022-10-16T01:50:18;0.66;;;0.66;;
15496;SDS011;7850;52.204;5.942;2022-10-16T01:51:18;0.42;;;0.42;;
15496;SDS011;7850;52.204;5.942;2022-10-16T01:52:19;0.40;;;0.40;;
15496;SDS011;7850;52.204;5.942;2022-10-16T01:53:18;0.31;;;0.31;;
15496;SDS011;7850;52.204;5.942;2022-10-16T01:54:18;0.32;;;0.32;;
15496;SDS011;7850;52.204;5.942;2022-10-16T01:55:20;0.30;;;0.30;;
15496;SDS011;7850;52.204;5.942;2022-10-16T01:56:18;0.57;;;0.57;;
15496;SDS011;7850;52.204;5.942;2022-10-16T01:57:18;0.20;;;0.20;;
15496;SDS011;7850;52.204;5.942;2022-10-16T01:58:18;0.17;;;0.17;;
15496;SDS011;7850;52.204;5.942;2022-10-16T01:59:19;0.20;;;0.20;;
15496;SDS011;7850;52.204;5.942;2022-10-16T02:00:19;0.20;;;0.20;;
15496;SDS011;7850;52.204;5.942;2022-10-16T02:01:19;0.20;;;0.20;;
15496;SDS011;7850;52.204;5.942;2022-10-16T02:02:19;0.14;;;0.14;;
15496;SDS011;7850;52.204;5.942;2022-10-16T02:03:19;0.20;;;0.20;;
15496;SDS011;7850;52.204;5.942;2022-10-16T02:04:20;0.16;;;0.16;;
15496;SDS011;7850;52.204;5.942;2022-10-16T02:05:20;0.20;;;0.20;;
15496;SDS011;7850;52.204;5.942;2022-10-16T02:06:19;0.20;;;0.20;;
15496;SDS011;7850;52.204;5.942;2022-10-16T02:07:19;0.20;;;0.20;;
15496;SDS011;7850;52.204;5.942;2022-10-16T02:08:19;0.20;;;0.20;;
15496;SDS011;7850;52.204;5.942;2022-10-16T02:09:19;0.20;;;0.20;;
15496;SDS011;7850;52.204;5.942;2022-10-16T02:10:19;0.20;;;0.20;;
15496;SDS011;7850;52.204;5.942;2022-10-16T02:11:19;0.20;;;0.20;;
15496;SDS011;7850;52.204;5.942;2022-10-16T02:12:21;0.20;;;0.20;;
15496;SDS011;7850;52.204;5.942;2022-10-16T02:13:20;0.19;;;0.19;;
15496;SDS011;7850;52.204;5.942;2022-10-16T02:14:19;0.30;;;0.30;;
15496;SDS011;7850;52.204;5.942;2022-10-16T02:15:19;0.20;;;0.20;;
15496;SDS011;7850;52.204;5.942;2022-10-16T02:16:19;0.20;;;0.20;;
15496;SDS011;7850;52.204;5.942;2022-10-16T02:17:19;0.18;;;0.18;;
15496;SDS011;7850;52.204;5.942;2022-10-16T02:18:19;0.20;;;0.20;;
15496;SDS011;7850;52.204;5.942;2022-10-16T02:19:19;0.20;;;0.20;;
15496;SDS011;7850;52.204;5.942;2022-10-16T02:20:20;0.20;;;0.20;;
15496;SDS011;7850;52.204;5.942;2022-10-16T02:21:21;0.18;;;0.18;;
15496;SDS011;7850;52.204;5.942;2022-10-16T02:22:21;1.21;;;1.19;;
15496;SDS011;7850;52.204;5.942;2022-10-16T02:23:21;1.70;;;1.69;;
15496;SDS011;7850;52.204;5.942;2022-10-16T02:24:22;1.50;;;1.50;;
15496;SDS011;7850;52.204;5.942;2022-10-16T02:25:22;2.13;;;2.07;;
15496;SDS011;7850;52.204;5.942;2022-10-16T02:26:23;1.07;;;1.07;;
15496;SDS011;7850;52.204;5.942;2022-10-16T02:27:21;0.84;;;0.84;;
15496;SDS011;7850;52.204;5.942;2022-10-16T02:28:22;2.03;;;1.96;;
15496;SDS011;7850;52.204;5.942;2022-10-16T02:29:21;1.22;;;1.22;;
15496;SDS011;7850;52.204;5.942;2022-10-16T02:30:21;1.35;;;1.35;;
15496;SDS011;7850;52.204;5.942;2022-10-16T02:31:21;1.04;;;1.04;;
15496;SDS011;7850;52.204;5.942;2022-10-16T02:32:21;1.08;;;1.08;;
15496;SDS011;7850;52.204;5.942;2022-10-16T02:33:20;0.78;;;0.78;;
15496;SDS011;7850;52.204;5.942;2022-10-16T02:34:20;1.19;;;1.19;;
15496;SDS011;7850;52.204;5.942;2022-10-16T02:35:21;1.69;;;1.69;;
15496;SDS011;7850;52.204;5.942;2022-10-16T02:36:20;1.85;;;1.84;;
15496;SDS011;7850;52.204;5.942;2022-10-16T02:37:20;2.83;;;2.73;;
15496;SDS011;7850;52.204;5.942;2022-10-16T02:38:20;2.17;;;2.12;;
15496;SDS011;7850;52.204;5.942;2022-10-16T02:39:20;1.22;;;1.22;;
15496;SDS011;7850;52.204;5.942;2022-10-16T02:40:20;2.03;;;1.99;;
15496;SDS011;7850;52.204;5.942;2022-10-16T02:41:21;1.18;;;1.18;;
15496;SDS011;7850;52.204;5.942;2022-10-16T02:42:20;2.04;;;2.00;;
15496;SDS011;7850;52.204;5.942;2022-10-16T02:43:21;1.48;;;1.48;;
15496;SDS011;7850;52.204;5.942;2022-10-16T02:44:21;1.78;;;1.77;;
15496;SDS011;7850;52.204;5.942;2022-10-16T02:45:21;2.02;;;1.98;;
15496;SDS011;7850;52.204;5.942;2022-10-16T02:46:21;1.21;;;1.21;;
15496;SDS011;7850;52.204;5.942;2022-10-16T02:47:21;2.51;;;2.41;;
15496;SDS011;7850;52.204;5.942;2022-10-16T02:48:21;3.06;;;2.96;;
15496;SDS011;7850;52.204;5.942;2022-10-16T02:49:21;1.37;;;1.37;;
15496;SDS011;7850;52.204;5.942;2022-10-16T02:50:21;3.05;;;2.95;;
15496;SDS011;7850;52.204;5.942;2022-10-16T02:51:21;1.05;;;1.05;;
15496;SDS011;7850;52.204;5.942;2022-10-16T02:52:21;2.88;;;2.78;;
15496;SDS011;7850;52.204;5.942;2022-10-16T02:53:21;1.16;;;1.16;;
15496;SDS011;7850;52.204;5.942;2022-10-16T02:54:21;1.32;;;1.32;;
15496;SDS011;7850;52.204;5.942;2022-10-16T02:55:21;0.92;;;0.92;;
15496;SDS011;7850;52.204;5.942;2022-10-16T02:56:21;1.00;;;1.00;;
15496;SDS011;7850;52.204;5.942;2022-10-16T02:57:21;0.75;;;0.75;;
15496;SDS011;7850;52.204;5.942;2022-10-16T02:58:21;1.26;;;1.26;;
15496;SDS011;7850;52.204;5.942;2022-10-16T02:59:21;0.60;;;0.60;;
15496;SDS011;7850;52.204;5.942;2022-10-16T03:00:21;0.66;;;0.66;;
15496;SDS011;7850;52.204;5.942;2022-10-16T03:01:21;2.28;;;2.21;;
15496;SDS011;7850;52.204;5.942;2022-10-16T03:02:21;0.40;;;0.40;;
15496;SDS011;7850;52.204;5.942;2022-10-16T03:03:22;0.40;;;0.40;;
15496;SDS011;7850;52.204;5.942;2022-10-16T03:04:22;0.65;;;0.65;;
15496;SDS011;7850;52.204;5.942;2022-10-16T03:05:22;0.52;;;0.52;;
15496;SDS011;7850;52.204;5.942;2022-10-16T03:06:22;0.40;;;0.40;;
15496;SDS011;7850;52.204;5.942;2022-10-16T03:07:22;0.53;;;0.53;;
15496;SDS011;7850;52.204;5.942;2022-10-16T03:08:22;0.30;;;0.30;;
15496;SDS011;7850;52.204;5.942;2022-10-16T03:09:22;0.36;;;0.36;;
15496;SDS011;7850;52.204;5.942;2022-10-16T03:10:22;0.30;;;0.30;;
15496;SDS011;7850;52.204;5.942;2022-10-16T03:11:22;0.34;;;0.34;;
15496;SDS011;7850;52.204;5.942;2022-10-16T03:12:22;0.30;;;0.30;;
15496;SDS011;7850;52.204;5.942;2022-10-16T03:13:22;0.35;;;0.35;;
15496;SDS011;7850;52.204;5.942;2022-10-16T03:14:22;0.43;;;0.43;;
15496;SDS011;7850;52.204;5.942;2022-10-16T03:15:22;0.44;;;0.44;;
15496;SDS011;7850;52.204;5.942;2022-10-16T03:16:22;0.56;;;0.56;;
15496;SDS011;7850;52.204;5.942;2022-10-16T03:17:22;0.36;;;0.36;;
15496;SDS011;7850;52.204;5.942;2022-10-16T03:18:23;0.80;;;0.80;;
15496;SDS011;7850;52.204;5.942;2022-10-16T03:19:23;0.87;;;0.87;;
15496;SDS011;7850;52.204;5.942;2022-10-16T03:20:23;0.68;;;0.68;;
15496;SDS011;7850;52.204;5.942;2022-10-16T03:21:23;0.40;;;0.40;;
15496;SDS011;7850;52.204;5.942;2022-10-16T03:22:23;0.30;;;0.30;;
15496;SDS011;7850;52.204;5.942;2022-10-16T03:23:23;0.29;;;0.29;;
15496;SDS011;7850;52.204;5.942;2022-10-16T03:24:23;0.30;;;0.30;;
15496;SDS011;7850;52.204;5.942;2022-10-16T03:25:23;0.47;;;0.47;;
15496;SDS011;7850;52.204;5.942;2022-10-16T03:26:23;0.65;;;0.65;;
15496;SDS011;7850;52.204;5.942;2022-10-16T03:27:23;0.57;;;0.57;;
15496;SDS011;7850;52.204;5.942;2022-10-16T03:28:23;0.53;;;0.53;;
15496;SDS011;7850;52.204;5.942;2022-10-16T03:29:23;0.32;;;0.32;;
15496;SDS011;7850;52.204;5.942;2022-10-16T03:30:23;0.47;;;0.47;;
15496;SDS011;7850;52.204;5.942;2022-10-16T03:31:23;0.76;;;0.76;;
15496;SDS011;7850;52.204;5.942;2022-10-16T03:32:24;0.68;;;0.68;;
15496;SDS011;7850;52.204;5.942;2022-10-16T03:33:24;0.61;;;0.61;;
15496;SDS011;7850;52.204;5.942;2022-10-16T03:34:24;0.83;;;0.83;;
15496;SDS011;7850;52.204;5.942;2022-10-16T03:35:24;0.56;;;0.56;;
15496;SDS011;7850;52.204;5.942;2022-10-16T03:36:24;0.80;;;0.80;;
15496;SDS011;7850;52.204;5.942;2022-10-16T03:37:24;0.38;;;0.38;;
15496;SDS011;7850;52.204;5.942;2022-10-16T03:38:24;0.59;;;0.59;;
15496;SDS011;7850;52.204;5.942;2022-10-16T03:39:24;0.42;;;0.42;;
15496;SDS011;7850;52.204;5.942;2022-10-16T03:40:24;0.59;;;0.59;;
15496;SDS011;7850;52.204;5.942;2022-10-16T03:41:24;0.50;;;0.50;;
15496;SDS011;7850;52.204;5.942;2022-10-16T03:42:24;0.52;;;0.52;;
15496;SDS011;7850;52.204;5.942;2022-10-16T03:43:24;2.21;;;2.17;;
15496;SDS011;7850;52.204;5.942;2022-10-16T03:44:24;4.11;;;3.98;;
15496;SDS011;7850;52.204;5.942;2022-10-16T03:45:24;1.49;;;1.49;;
15496;SDS011;7850;52.204;5.942;2022-10-16T03:46:24;4.17;;;4.03;;
15496;SDS011;7850;52.204;5.942;2022-10-16T03:47:24;3.45;;;3.35;;
15496;SDS011;7850;52.204;5.942;2022-10-16T03:48:24;0.57;;;0.57;;
15496;SDS011;7850;52.204;5.942;2022-10-16T03:49:25;2.24;;;2.17;;
15496;SDS011;7850;52.204;5.942;2022-10-16T03:50:25;1.24;;;1.24;;
15496;SDS011;7850;52.204;5.942;2022-10-16T03:51:25;2.79;;;2.71;;
15496;SDS011;7850;52.204;5.942;2022-10-16T03:52:25;4.43;;;4.26;;
15496;SDS011;7850;52.204;5.942;2022-10-16T03:53:25;3.12;;;3.02;;
15496;SDS011;7850;52.204;5.942;2022-10-16T03:54:25;2.26;;;2.22;;
15496;SDS011;7850;52.204;5.942;2022-10-16T03:55:25;2.31;;;2.26;;
15496;SDS011;7850;52.204;5.942;2022-10-16T03:56:25;1.28;;;1.28;;
15496;SDS011;7850;52.204;5.942;2022-10-16T03:57:25;0.91;;;0.91;;
15496;SDS011;7850;52.204;5.942;2022-10-16T03:58:25;2.81;;;2.72;;
15496;SDS011;7850;52.204;5.942;2022-10-16T03:59:25;4.43;;;4.25;;
15496;SDS011;7850;52.204;5.942;2022-10-16T04:00:25;5.10;;;4.91;;
15496;SDS011;7850;52.204;5.942;2022-10-16T04:01:25;0.71;;;0.71;;
15496;SDS011;7850;52.204;5.942;2022-10-16T04:02:25;3.66;;;3.56;;
15496;SDS011;7850;52.204;5.942;2022-10-16T04:03:26;2.23;;;2.17;;
15496;SDS011;7850;52.204;5.942;2022-10-16T04:04:26;4.58;;;4.41;;
15496;SDS011;7850;52.204;5.942;2022-10-16T04:05:26;2.57;;;2.50;;
15496;SDS011;7850;52.204;5.942;2022-10-16T04:06:26;5.84;;;5.63;;
15496;SDS011;7850;52.204;5.942;2022-10-16T04:07:26;2.90;;;2.80;;
15496;SDS011;7850;52.204;5.942;2022-10-16T04:08:26;0.76;;;0.76;;
15496;SDS011;7850;52.204;5.942;2022-10-16T04:09:26;2.36;;;2.26;;
15496;SDS011;7850;52.204;5.942;2022-10-16T04:10:26;4.41;;;4.26;;
15496;SDS011;7850;52.204;5.942;2022-10-16T04:11:26;2.81;;;2.73;;
15496;SDS011;7850;52.204;5.942;2022-10-16T04:12:26;1.32;;;1.31;;
15496;SDS011;7850;52.204;5.942;2022-10-16T04:13:26;1.31;;;1.30;;
15496;SDS011;7850;52.204;5.942;2022-10-16T04:14:26;2.95;;;2.86;;
15496;SDS011;7850;52.204;5.942;2022-10-16T04:15:26;1.86;;;1.85;;
15496;SDS011;7850;52.204;5.942;2022-10-16T04:16:26;4.58;;;4.40;;
15496;SDS011;7850;52.204;5.942;2022-10-16T04:17:27;1.78;;;1.78;;
15496;SDS011;7850;52.204;5.942;2022-10-16T04:18:27;2.14;;;2.09;;
15496;SDS011;7850;52.204;5.942;2022-10-16T04:19:27;2.07;;;2.03;;
15496;SDS011;7850;52.204;5.942;2022-10-16T04:20:27;2.18;;;2.13;;
15496;SDS011;7850;52.204;5.942;2022-10-16T04:21:27;3.69;;;3.55;;
15496;SDS011;7850;52.204;5.942;2022-10-16T04:22:27;3.61;;;3.47;;
15496;SDS011;7850;52.204;5.942;2022-10-16T04:23:27;3.89;;;3.73;;
15496;SDS011;7850;52.204;5.942;2022-10-16T04:24:27;5.04;;;4.84;;
15496;SDS011;7850;52.204;5.942;2022-10-16T04:25:27;4.99;;;4.79;;
15496;SDS011;7850;52.204;5.942;2022-10-16T04:26:27;4.73;;;4.53;;
15496;SDS011;7850;52.204;5.942;2022-10-16T04:27:27;5.09;;;4.89;;
15496;SDS011;7850;52.204;5.942;2022-10-16T04:28:27;7.81;;;7.51;;
15496;SDS011;7850;52.204;5.942;2022-10-16T04:29:27;7.23;;;6.93;;
15496;SDS011;7850;52.204;5.942;2022-10-16T04:30:27;5.79;;;5.59;;
15496;SDS011;7850;52.204;5.942;2022-10-16T04:31:28;6.39;;;6.14;;
15496;SDS011;7850;52.204;5.942;2022-10-16T04:32:28;3.28;;;3.17;;
15496;SDS011;7850;52.204;5.942;2022-10-16T04:33:28;1.02;;;1.02;;
15496;SDS011;7850;52.204;5.942;2022-10-16T04:34:28;1.33;;;1.33;;
15496;SDS011;7850;52.204;5.942;2022-10-16T04:35:28;1.33;;;1.33;;
15496;SDS011;7850;52.204;5.942;2022-10-16T04:36:28;1.16;;;1.16;;
15496;SDS011;7850;52.204;5.942;2022-10-16T04:37:28;1.45;;;1.45;;
15496;SDS011;7850;52.204;5.942;2022-10-16T04:38:28;1.31;;;1.31;;
15496;SDS011;7850;52.204;5.942;2022-10-16T04:39:28;1.09;;;1.09;;
15496;SDS011;7850;52.204;5.942;2022-10-16T04:40:28;1.16;;;1.16;;
15496;SDS011;7850;52.204;5.942;2022-10-16T04:41:28;1.44;;;1.44;;
15496;SDS011;7850;52.204;5.942;2022-10-16T04:42:28;0.37;;;0.37;;
15496;SDS011;7850;52.204;5.942;2022-10-16T04:43:28;0.30;;;0.30;;
15496;SDS011;7850;52.204;5.942;2022-10-16T04:44:28;0.30;;;0.30;;
15496;SDS011;7850;52.204;5.942;2022-10-16T04:45:28;0.24;;;0.24;;
15496;SDS011;7850;52.204;5.942;2022-10-16T04:46:29;0.30;;;0.30;;
15496;SDS011;7850;52.204;5.942;2022-10-16T04:47:29;0.24;;;0.24;;
15496;SDS011;7850;52.204;5.942;2022-10-16T04:48:29;0.44;;;0.44;;
15496;SDS011;7850;52.204;5.942;2022-10-16T04:49:29;0.27;;;0.27;;
15496;SDS011;7850;52.204;5.942;2022-10-16T04:50:29;0.23;;;0.23;;
15496;SDS011;7850;52.204;5.942;2022-10-16T04:51:29;1.28;;;1.28;;
15496;SDS011;7850;52.204;5.942;2022-10-16T04:52:29;1.11;;;1.11;;
15496;SDS011;7850;52.204;5.942;2022-10-16T04:53:29;1.50;;;1.50;;
15496;SDS011;7850;52.204;5.942;2022-10-16T04:54:29;1.21;;;1.21;;
15496;SDS011;7850;52.204;5.942;2022-10-16T04:55:29;1.54;;;1.54;;
15496;SDS011;7850;52.204;5.942;2022-10-16T04:56:29;1.99;;;1.94;;
15496;SDS011;7850;52.204;5.942;2022-10-16T04:57:29;1.40;;;1.40;;
15496;SDS011;7850;52.204;5.942;2022-10-16T04:58:29;1.51;;;1.51;;
15496;SDS011;7850;52.204;5.942;2022-10-16T04:59:29;1.41;;;1.41;;
15496;SDS011;7850;52.204;5.942;2022-10-16T05:00:29;1.56;;;1.55;;
15496;SDS011;7850;52.204;5.942;2022-10-16T05:01:29;1.22;;;1.22;;
15496;SDS011;7850;52.204;5.942;2022-10-16T05:02:29;1.32;;;1.32;;
15496;SDS011;7850;52.204;5.942;2022-10-16T05:03:30;1.41;;;1.41;;
15496;SDS011;7850;52.204;5.942;2022-10-16T05:04:30;1.18;;;1.18;;
15496;SDS011;7850;52.204;5.942;2022-10-16T05:05:30;1.26;;;1.26;;
15496;SDS011;7850;52.204;5.942;2022-10-16T05:06:30;1.24;;;1.24;;
15496;SDS011;7850;52.204;5.942;2022-10-16T05:07:30;1.28;;;1.28;;
15496;SDS011;7850;52.204;5.942;2022-10-16T05:08:30;1.35;;;1.35;;
15496;SDS011;7850;52.204;5.942;2022-10-16T05:09:30;1.07;;;1.07;;
15496;SDS011;7850;52.204;5.942;2022-10-16T05:10:30;1.46;;;1.46;;
15496;SDS011;7850;52.204;5.942;2022-10-16T05:11:30;1.28;;;1.28;;
15496;SDS011;7850;52.204;5.942;2022-10-16T05:12:30;1.22;;;1.22;;
15496;SDS011;7850;52.204;5.942;2022-10-16T05:13:30;1.36;;;1.36;;
15496;SDS011;7850;52.204;5.942;2022-10-16T05:14:30;1.13;;;1.13;;
15496;SDS011;7850;52.204;5.942;2022-10-16T05:15:30;1.33;;;1.33;;
15496;SDS011;7850;52.204;5.942;2022-10-16T05:16:30;1.23;;;1.23;;
15496;SDS011;7850;52.204;5.942;2022-10-16T05:17:31;1.14;;;1.14;;
15496;SDS011;7850;52.204;5.942;2022-10-16T05:18:31;1.19;;;1.19;;
15496;SDS011;7850;52.204;5.942;2022-10-16T05:19:31;1.18;;;1.18;;
15496;SDS011;7850;52.204;5.942;2022-10-16T05:20:31;1.00;;;1.00;;
15496;SDS011;7850;52.204;5.942;2022-10-16T05:21:31;1.50;;;1.50;;
15496;SDS011;7850;52.204;5.942;2022-10-16T05:22:31;0.95;;;0.95;;
15496;SDS011;7850;52.204;5.942;2022-10-16T05:23:31;0.98;;;0.98;;
15496;SDS011;7850;52.204;5.942;2022-10-16T05:24:31;0.93;;;0.93;;
15496;SDS011;7850;52.204;5.942;2022-10-16T05:25:31;1.40;;;1.40;;
15496;SDS011;7850;52.204;5.942;2022-10-16T05:26:31;1.31;;;1.31;;
15496;SDS011;7850;52.204;5.942;2022-10-16T05:27:31;1.15;;;1.15;;
15496;SDS011;7850;52.204;5.942;2022-10-16T05:28:31;1.16;;;1.16;;
15496;SDS011;7850;52.204;5.942;2022-10-16T05:29:31;1.05;;;1.05;;
15496;SDS011;7850;52.204;5.942;2022-10-16T05:30:31;1.08;;;1.08;;
15496;SDS011;7850;52.204;5.942;2022-10-16T05:31:31;1.40;;;1.40;;
15496;SDS011;7850;52.204;5.942;2022-10-16T05:32:32;3.85;;;3.72;;
15496;SDS011;7850;52.204;5.942;2022-10-16T05:33:32;0.94;;;0.94;;
15496;SDS011;7850;52.204;5.942;2022-10-16T05:34:32;1.25;;;1.25;;
15496;SDS011;7850;52.204;5.942;2022-10-16T05:35:32;1.42;;;1.42;;
15496;SDS011;7850;52.204;5.942;2022-10-16T05:36:32;1.13;;;1.13;;
15496;SDS011;7850;52.204;5.942;2022-10-16T05:37:32;1.15;;;1.15;;
15496;SDS011;7850;52.204;5.942;2022-10-16T05:38:32;1.09;;;1.09;;
15496;SDS011;7850;52.204;5.942;2022-10-16T05:39:32;1.25;;;1.25;;
15496;SDS011;7850;52.204;5.942;2022-10-16T05:40:32;1.32;;;1.32;;
15496;SDS011;7850;52.204;5.942;2022-10-16T05:41:32;1.27;;;1.27;;
15496;SDS011;7850;52.204;5.942;2022-10-16T05:42:32;1.23;;;1.23;;
15496;SDS011;7850;52.204;5.942;2022-10-16T05:43:32;1.02;;;1.02;;
15496;SDS011;7850;52.204;5.942;2022-10-16T05:44:32;1.25;;;1.25;;
15496;SDS011;7850;52.204;5.942;2022-10-16T05:45:32;1.29;;;1.29;;
15496;SDS011;7850;52.204;5.942;2022-10-16T05:46:32;1.25;;;1.25;;
15496;SDS011;7850;52.204;5.942;2022-10-16T05:47:32;1.15;;;1.15;;
15496;SDS011;7850;52.204;5.942;2022-10-16T05:48:32;1.08;;;1.08;;
15496;SDS011;7850;52.204;5.942;2022-10-16T05:49:32;1.27;;;1.27;;
15496;SDS011;7850;52.204;5.942;2022-10-16T05:50:33;1.27;;;1.27;;
15496;SDS011;7850;52.204;5.942;2022-10-16T05:51:33;1.32;;;1.32;;
15496;SDS011;7850;52.204;5.942;2022-10-16T05:52:33;1.08;;;1.08;;
15496;SDS011;7850;52.204;5.942;2022-10-16T05:53:33;1.29;;;1.29;;
15496;SDS011;7850;52.204;5.942;2022-10-16T05:54:33;1.28;;;1.28;;
15496;SDS011;7850;52.204;5.942;2022-10-16T05:55:33;1.16;;;1.16;;
15496;SDS011;7850;52.204;5.942;2022-10-16T05:56:33;1.12;;;1.12;;
15496;SDS011;7850;52.204;5.942;2022-10-16T05:57:33;1.37;;;1.37;;
15496;SDS011;7850;52.204;5.942;2022-10-16T05:58:34;1.13;;;1.13;;
15496;SDS011;7850;52.204;5.942;2022-10-16T05:59:33;1.36;;;1.36;;
15496;SDS011;7850;52.204;5.942;2022-10-16T06:00:33;1.20;;;1.20;;
15496;SDS011;7850;52.204;5.942;2022-10-16T06:01:33;1.28;;;1.28;;
15496;SDS011;7850;52.204;5.942;2022-10-16T06:02:33;1.18;;;1.18;;
15496;SDS011;7850;52.204;5.942;2022-10-16T06:03:33;1.46;;;1.46;;
15496;SDS011;7850;52.204;5.942;2022-10-16T06:04:34;1.26;;;1.26;;
15496;SDS011;7850;52.204;5.942;2022-10-16T06:05:34;1.32;;;1.32;;
15496;SDS011;7850;52.204;5.942;2022-10-16T06:06:34;1.14;;;1.14;;
15496;SDS011;7850;52.204;5.942;2022-10-16T06:07:34;1.12;;;1.12;;